sensor_id;sensor_type;location;lat;lon;timestamp;P1;durP1;ratioP1;P2;durP2;ratioP2
74320;SDS011;62738;45.772;4.804;2022-10-15T00:01:08;8.07;;;3.67;;
74320;SDS011;62738;45.772;4.804;2022-10-15T00:03:38;10.82;;;4.75;;
74320;SDS011;62738;45.772;4.804;2022-10-15T00:06:06;8.43;;;3.78;;
74320;SDS011;62738;45.772;4.804;2022-10-15T00:08:35;9.20;;;4.00;;
74320;SDS011;62738;45.772;4.804;2022-10-15T00:11:06;10.23;;;4.40;;
74320;SDS011;62738;45.772;4.804;2022-10-15T00:13:54;7.60;;;4.40;;
74320;SDS011;62738;45.772;4.804;2022-10-15T00:16:23;8.23;;;3.47;;
74320;SDS011;62738;45.772;4.804;2022-10-15T00:18:51;8.60;;;3.30;;
74320;SDS011;62738;45.772;4.804;2022-10-15T00:21:20;6.15;;;3.65;;
74320;SDS011;62738;45.772;4.804;2022-10-15T00:23:48;6.70;;;3.50;;
74320;SDS011;62738;45.772;4.804;2022-10-15T00:26:16;10.27;;;3.47;;
74320;SDS011;62738;45.772;4.804;2022-10-15T00:28:51;8.88;;;4.03;;
74320;SDS011;62738;45.772;4.804;2022-10-15T00:31:19;7.18;;;3.78;;
74320;SDS011;62738;45.772;4.804;2022-10-15T00:33:48;6.78;;;3.60;;
74320;SDS011;62738;45.772;4.804;2022-10-15T00:36:17;7.53;;;3.90;;
74320;SDS011;62738;45.772;4.804;2022-10-15T00:38:46;9.15;;;4.13;;
74320;SDS011;62738;45.772;4.804;2022-10-15T00:41:14;8.73;;;3.75;;
74320;SDS011;62738;45.772;4.804;2022-10-15T00:43:44;7.15;;;3.65;;
74320;SDS011;62738;45.772;4.804;2022-10-15T00:46:26;6.93;;;3.83;;
74320;SDS011;62738;45.772;4.804;2022-10-15T00:48:58;6.53;;;3.08;;
74320;SDS011;62738;45.772;4.804;2022-10-15T00:51:32;8.55;;;3.08;;
74320;SDS011;62738;45.772;4.804;2022-10-15T00:54:03;7.82;;;3.33;;
74320;SDS011;62738;45.772;4.804;2022-10-15T00:56:30;5.68;;;3.10;;
74320;SDS011;62738;45.772;4.804;2022-10-15T00:58:58;7.63;;;3.20;;
74320;SDS011;62738;45.772;4.804;2022-10-15T01:01:25;9.18;;;3.55;;
74320;SDS011;62738;45.772;4.804;2022-10-15T01:03:52;6.88;;;3.50;;
74320;SDS011;62738;45.772;4.804;2022-10-15T01:06:21;4.90;;;3.35;;
74320;SDS011;62738;45.772;4.804;2022-10-15T01:08:49;8.55;;;4.13;;
74320;SDS011;62738;45.772;4.804;2022-10-15T01:36:54;6.40;;;3.35;;
74320;SDS011;62738;45.772;4.804;2022-10-15T01:39:30;7.68;;;3.33;;
74320;SDS011;62738;45.772;4.804;2022-10-15T01:42:33;5.72;;;3.08;;
74320;SDS011;62738;45.772;4.804;2022-10-15T01:45:15;6.38;;;3.45;;
74320;SDS011;62738;45.772;4.804;2022-10-15T01:47:48;8.57;;;3.00;;
74320;SDS011;62738;45.772;4.804;2022-10-15T01:50:21;5.93;;;3.28;;
74320;SDS011;62738;45.772;4.804;2022-10-15T01:52:52;5.22;;;3.13;;
74320;SDS011;62738;45.772;4.804;2022-10-15T01:55:21;5.07;;;2.90;;
74320;SDS011;62738;45.772;4.804;2022-10-15T01:57:49;8.27;;;3.33;;
74320;SDS011;62738;45.772;4.804;2022-10-15T02:00:19;4.75;;;2.90;;
74320;SDS011;62738;45.772;4.804;2022-10-15T02:02:45;8.90;;;3.05;;
74320;SDS011;62738;45.772;4.804;2022-10-15T02:05:16;5.68;;;2.92;;
74320;SDS011;62738;45.772;4.804;2022-10-15T02:08:03;5.85;;;3.22;;
74320;SDS011;62738;45.772;4.804;2022-10-15T02:18:36;6.60;;;2.72;;
74320;SDS011;62738;45.772;4.804;2022-10-15T02:21:09;5.97;;;2.60;;
74320;SDS011;62738;45.772;4.804;2022-10-15T02:23:48;7.25;;;3.33;;
74320;SDS011;62738;45.772;4.804;2022-10-15T02:26:18;6.65;;;3.00;;
74320;SDS011;62738;45.772;4.804;2022-10-15T02:28:49;6.43;;;3.00;;
74320;SDS011;62738;45.772;4.804;2022-10-15T02:31:19;6.72;;;2.97;;
74320;SDS011;62738;45.772;4.804;2022-10-15T02:33:48;5.90;;;3.08;;
74320;SDS011;62738;45.772;4.804;2022-10-15T02:36:17;9.13;;;4.05;;
74320;SDS011;62738;45.772;4.804;2022-10-15T02:38:45;6.18;;;3.45;;
74320;SDS011;62738;45.772;4.804;2022-10-15T02:41:14;6.82;;;3.95;;
74320;SDS011;62738;45.772;4.804;2022-10-15T02:43:41;10.85;;;4.00;;
74320;SDS011;62738;45.772;4.804;2022-10-15T02:46:09;7.25;;;3.72;;
74320;SDS011;62738;45.772;4.804;2022-10-15T02:48:38;10.10;;;3.20;;
74320;SDS011;62738;45.772;4.804;2022-10-15T02:51:05;8.10;;;3.90;;
74320;SDS011;62738;45.772;4.804;2022-10-15T02:53:32;6.95;;;3.95;;
74320;SDS011;62738;45.772;4.804;2022-10-15T02:55:59;6.57;;;3.90;;
74320;SDS011;62738;45.772;4.804;2022-10-15T02:58:25;8.27;;;3.50;;
74320;SDS011;62738;45.772;4.804;2022-10-15T03:00:54;6.57;;;3.53;;
74320;SDS011;62738;45.772;4.804;2022-10-15T03:03:21;7.07;;;3.95;;
74320;SDS011;62738;45.772;4.804;2022-10-15T03:05:48;8.88;;;4.07;;
74320;SDS011;62738;45.772;4.804;2022-10-15T03:08:14;9.35;;;4.53;;
74320;SDS011;62738;45.772;4.804;2022-10-15T03:10:41;8.32;;;4.80;;
74320;SDS011;62738;45.772;4.804;2022-10-15T03:13:08;9.05;;;4.82;;
74320;SDS011;62738;45.772;4.804;2022-10-15T03:15:35;13.38;;;4.18;;
74320;SDS011;62738;45.772;4.804;2022-10-15T03:18:03;8.38;;;4.40;;
74320;SDS011;62738;45.772;4.804;2022-10-15T03:20:30;7.90;;;4.18;;
74320;SDS011;62738;45.772;4.804;2022-10-15T03:22:56;6.85;;;3.53;;
74320;SDS011;62738;45.772;4.804;2022-10-15T03:25:23;7.28;;;3.92;;
74320;SDS011;62738;45.772;4.804;2022-10-15T03:27:50;6.60;;;3.60;;
74320;SDS011;62738;45.772;4.804;2022-10-15T03:30:18;10.23;;;3.58;;
74320;SDS011;62738;45.772;4.804;2022-10-15T03:32:45;5.97;;;3.67;;
74320;SDS011;62738;45.772;4.804;2022-10-15T03:35:13;12.80;;;3.85;;
74320;SDS011;62738;45.772;4.804;2022-10-15T03:37:40;7.03;;;3.33;;
74320;SDS011;62738;45.772;4.804;2022-10-15T03:40:06;5.07;;;2.58;;
74320;SDS011;62738;45.772;4.804;2022-10-15T03:42:39;7.55;;;2.67;;
74320;SDS011;62738;45.772;4.804;2022-10-15T03:45:06;6.30;;;2.63;;
74320;SDS011;62738;45.772;4.804;2022-10-15T03:47:33;5.35;;;3.20;;
74320;SDS011;62738;45.772;4.804;2022-10-15T03:50:00;7.28;;;3.15;;
74320;SDS011;62738;45.772;4.804;2022-10-15T03:52:27;6.10;;;2.42;;
74320;SDS011;62738;45.772;4.804;2022-10-15T03:54:54;7.88;;;2.60;;
74320;SDS011;62738;45.772;4.804;2022-10-15T03:57:20;4.55;;;2.45;;
74320;SDS011;62738;45.772;4.804;2022-10-15T03:59:47;3.30;;;2.03;;
74320;SDS011;62738;45.772;4.804;2022-10-15T04:02:13;5.90;;;2.20;;
74320;SDS011;62738;45.772;4.804;2022-10-15T04:04:40;6.47;;;2.20;;
74320;SDS011;62738;45.772;4.804;2022-10-15T04:07:07;5.05;;;2.00;;
74320;SDS011;62738;45.772;4.804;2022-10-15T04:09:33;7.25;;;2.13;;
74320;SDS011;62738;45.772;4.804;2022-10-15T04:12:00;3.28;;;1.92;;
74320;SDS011;62738;45.772;4.804;2022-10-15T04:14:26;4.22;;;2.10;;
74320;SDS011;62738;45.772;4.804;2022-10-15T04:16:54;5.25;;;2.08;;
74320;SDS011;62738;45.772;4.804;2022-10-15T04:19:20;8.65;;;2.47;;
74320;SDS011;62738;45.772;4.804;2022-10-15T04:21:47;4.72;;;2.20;;
74320;SDS011;62738;45.772;4.804;2022-10-15T04:24:14;5.88;;;2.08;;
74320;SDS011;62738;45.772;4.804;2022-10-15T04:26:40;7.07;;;2.08;;
74320;SDS011;62738;45.772;4.804;2022-10-15T04:29:07;9.38;;;2.55;;
74320;SDS011;62738;45.772;4.804;2022-10-15T04:31:34;6.07;;;2.40;;
74320;SDS011;62738;45.772;4.804;2022-10-15T04:34:00;9.25;;;2.20;;
74320;SDS011;62738;45.772;4.804;2022-10-15T04:36:27;5.70;;;2.10;;
74320;SDS011;62738;45.772;4.804;2022-10-15T04:38:53;4.10;;;2.08;;
74320;SDS011;62738;45.772;4.804;2022-10-15T04:41:20;8.73;;;2.03;;
74320;SDS011;62738;45.772;4.804;2022-10-15T04:43:46;5.13;;;2.08;;
74320;SDS011;62738;45.772;4.804;2022-10-15T04:46:13;6.53;;;2.13;;
74320;SDS011;62738;45.772;4.804;2022-10-15T04:48:40;5.10;;;2.30;;
74320;SDS011;62738;45.772;4.804;2022-10-15T04:51:18;5.82;;;2.25;;
74320;SDS011;62738;45.772;4.804;2022-10-15T04:53:46;8.73;;;2.10;;
74320;SDS011;62738;45.772;4.804;2022-10-15T04:56:14;6.45;;;2.30;;
74320;SDS011;62738;45.772;4.804;2022-10-15T04:58:43;5.28;;;2.10;;
74320;SDS011;62738;45.772;4.804;2022-10-15T05:01:12;6.97;;;2.20;;
74320;SDS011;62738;45.772;4.804;2022-10-15T05:03:41;5.63;;;2.17;;
74320;SDS011;62738;45.772;4.804;2022-10-15T05:06:11;4.85;;;2.10;;
74320;SDS011;62738;45.772;4.804;2022-10-15T05:08:41;3.50;;;1.98;;
74320;SDS011;62738;45.772;4.804;2022-10-15T05:11:16;5.07;;;1.80;;
74320;SDS011;62738;45.772;4.804;2022-10-15T05:13:47;4.50;;;2.00;;
74320;SDS011;62738;45.772;4.804;2022-10-15T05:16:17;7.35;;;2.40;;
74320;SDS011;62738;45.772;4.804;2022-10-15T05:18:46;3.83;;;1.75;;
74320;SDS011;62738;45.772;4.804;2022-10-15T05:21:14;4.43;;;2.00;;
74320;SDS011;62738;45.772;4.804;2022-10-15T05:23:42;7.03;;;2.00;;
74320;SDS011;62738;45.772;4.804;2022-10-15T05:26:10;7.57;;;2.22;;
74320;SDS011;62738;45.772;4.804;2022-10-15T05:28:38;4.70;;;2.25;;
74320;SDS011;62738;45.772;4.804;2022-10-15T05:31:09;3.97;;;1.90;;
74320;SDS011;62738;45.772;4.804;2022-10-15T05:33:43;4.32;;;1.80;;
74320;SDS011;62738;45.772;4.804;2022-10-15T05:36:11;5.45;;;2.10;;
74320;SDS011;62738;45.772;4.804;2022-10-15T05:38:39;4.90;;;1.98;;
74320;SDS011;62738;45.772;4.804;2022-10-15T05:41:06;4.38;;;1.92;;
74320;SDS011;62738;45.772;4.804;2022-10-15T05:43:32;6.88;;;2.00;;
74320;SDS011;62738;45.772;4.804;2022-10-15T05:46:05;5.07;;;2.08;;
74320;SDS011;62738;45.772;4.804;2022-10-15T05:48:32;7.05;;;2.15;;
74320;SDS011;62738;45.772;4.804;2022-10-15T05:51:09;3.72;;;1.70;;
74320;SDS011;62738;45.772;4.804;2022-10-15T05:53:38;6.13;;;2.03;;
74320;SDS011;62738;45.772;4.804;2022-10-15T05:56:05;5.95;;;1.88;;
74320;SDS011;62738;45.772;4.804;2022-10-15T05:58:33;5.72;;;1.88;;
74320;SDS011;62738;45.772;4.804;2022-10-15T06:01:04;5.32;;;1.95;;
74320;SDS011;62738;45.772;4.804;2022-10-15T06:03:32;3.75;;;2.00;;
74320;SDS011;62738;45.772;4.804;2022-10-15T06:05:59;3.30;;;1.67;;
74320;SDS011;62738;45.772;4.804;2022-10-15T06:08:27;4.25;;;1.83;;
74320;SDS011;62738;45.772;4.804;2022-10-15T06:10:55;8.90;;;1.90;;
74320;SDS011;62738;45.772;4.804;2022-10-15T06:13:33;5.97;;;2.10;;
74320;SDS011;62738;45.772;4.804;2022-10-15T06:16:01;4.30;;;2.10;;
74320;SDS011;62738;45.772;4.804;2022-10-15T06:18:29;5.70;;;1.90;;
74320;SDS011;62738;45.772;4.804;2022-10-15T06:20:55;3.72;;;2.03;;
74320;SDS011;62738;45.772;4.804;2022-10-15T06:23:22;4.57;;;1.88;;
74320;SDS011;62738;45.772;4.804;2022-10-15T06:25:49;6.15;;;1.85;;
74320;SDS011;62738;45.772;4.804;2022-10-15T06:28:16;5.20;;;2.10;;
74320;SDS011;62738;45.772;4.804;2022-10-15T06:30:43;5.38;;;2.20;;
74320;SDS011;62738;45.772;4.804;2022-10-15T06:33:10;4.50;;;2.15;;
74320;SDS011;62738;45.772;4.804;2022-10-15T06:35:41;5.32;;;1.95;;
74320;SDS011;62738;45.772;4.804;2022-10-15T06:38:08;4.75;;;2.10;;
74320;SDS011;62738;45.772;4.804;2022-10-15T06:40:36;3.75;;;2.08;;
74320;SDS011;62738;45.772;4.804;2022-10-15T06:43:03;7.32;;;2.10;;
74320;SDS011;62738;45.772;4.804;2022-10-15T06:45:38;6.75;;;2.40;;
74320;SDS011;62738;45.772;4.804;2022-10-15T06:48:07;6.07;;;2.13;;
74320;SDS011;62738;45.772;4.804;2022-10-15T06:50:34;6.90;;;2.80;;
74320;SDS011;62738;45.772;4.804;2022-10-15T06:53:03;12.50;;;5.13;;
74320;SDS011;62738;45.772;4.804;2022-10-15T06:55:30;11.52;;;5.90;;
74320;SDS011;62738;45.772;4.804;2022-10-15T06:57:57;13.95;;;6.30;;
74320;SDS011;62738;45.772;4.804;2022-10-15T07:00:24;9.55;;;4.93;;
74320;SDS011;62738;45.772;4.804;2022-10-15T07:02:51;8.75;;;4.07;;
74320;SDS011;62738;45.772;4.804;2022-10-15T07:05:18;11.48;;;4.50;;
74320;SDS011;62738;45.772;4.804;2022-10-15T07:07:51;7.72;;;3.90;;
74320;SDS011;62738;45.772;4.804;2022-10-15T07:10:22;7.38;;;3.13;;
74320;SDS011;62738;45.772;4.804;2022-10-15T07:12:50;12.52;;;3.00;;
74320;SDS011;62738;45.772;4.804;2022-10-15T07:15:17;5.57;;;2.78;;
74320;SDS011;62738;45.772;4.804;2022-10-15T07:17:51;9.15;;;3.20;;
74320;SDS011;62738;45.772;4.804;2022-10-15T07:20:21;6.47;;;3.05;;
74320;SDS011;62738;45.772;4.804;2022-10-15T07:22:49;8.80;;;3.92;;
74320;SDS011;62738;45.772;4.804;2022-10-15T07:25:17;8.10;;;4.05;;
74320;SDS011;62738;45.772;4.804;2022-10-15T07:27:43;8.95;;;4.90;;
74320;SDS011;62738;45.772;4.804;2022-10-15T07:30:10;10.77;;;4.25;;
74320;SDS011;62738;45.772;4.804;2022-10-15T07:32:37;8.98;;;4.50;;
74320;SDS011;62738;45.772;4.804;2022-10-15T07:35:03;8.30;;;4.13;;
74320;SDS011;62738;45.772;4.804;2022-10-15T07:37:30;8.95;;;4.40;;
74320;SDS011;62738;45.772;4.804;2022-10-15T07:39:57;9.68;;;4.00;;
74320;SDS011;62738;45.772;4.804;2022-10-15T07:42:23;11.13;;;4.20;;
74320;SDS011;62738;45.772;4.804;2022-10-15T07:44:50;9.05;;;4.80;;
74320;SDS011;62738;45.772;4.804;2022-10-15T07:47:16;8.32;;;4.10;;
74320;SDS011;62738;45.772;4.804;2022-10-15T07:49:44;7.80;;;3.83;;
74320;SDS011;62738;45.772;4.804;2022-10-15T07:52:10;7.03;;;3.95;;
74320;SDS011;62738;45.772;4.804;2022-10-15T07:54:37;8.20;;;3.35;;
74320;SDS011;62738;45.772;4.804;2022-10-15T07:57:03;10.18;;;3.60;;
74320;SDS011;62738;45.772;4.804;2022-10-15T07:59:32;8.75;;;3.70;;
74320;SDS011;62738;45.772;4.804;2022-10-15T08:01:59;6.68;;;3.92;;
74320;SDS011;62738;45.772;4.804;2022-10-15T08:04:26;7.88;;;4.00;;
74320;SDS011;62738;45.772;4.804;2022-10-15T08:06:53;7.30;;;3.50;;
74320;SDS011;62738;45.772;4.804;2022-10-15T08:09:19;7.22;;;3.50;;
74320;SDS011;62738;45.772;4.804;2022-10-15T08:11:46;7.10;;;3.50;;
74320;SDS011;62738;45.772;4.804;2022-10-15T08:14:12;5.38;;;3.15;;
74320;SDS011;62738;45.772;4.804;2022-10-15T08:16:39;6.72;;;3.40;;
74320;SDS011;62738;45.772;4.804;2022-10-15T08:19:06;8.40;;;3.42;;
74320;SDS011;62738;45.772;4.804;2022-10-15T08:21:33;5.50;;;3.15;;
74320;SDS011;62738;45.772;4.804;2022-10-15T08:23:59;9.32;;;3.10;;
74320;SDS011;62738;45.772;4.804;2022-10-15T08:26:26;5.43;;;2.95;;
74320;SDS011;62738;45.772;4.804;2022-10-15T08:28:52;6.60;;;2.58;;
74320;SDS011;62738;45.772;4.804;2022-10-15T08:31:19;3.95;;;1.80;;
74320;SDS011;62738;45.772;4.804;2022-10-15T08:33:46;8.10;;;2.10;;
74320;SDS011;62738;45.772;4.804;2022-10-15T08:36:12;4.38;;;1.85;;
74320;SDS011;62738;45.772;4.804;2022-10-15T08:38:39;4.32;;;1.67;;
74320;SDS011;62738;45.772;4.804;2022-10-15T08:41:13;3.42;;;1.50;;
74320;SDS011;62738;45.772;4.804;2022-10-15T08:43:48;4.18;;;1.40;;
74320;SDS011;62738;45.772;4.804;2022-10-15T08:46:16;4.88;;;1.40;;
74320;SDS011;62738;45.772;4.804;2022-10-15T08:48:48;1.60;;;1.15;;
74320;SDS011;62738;45.772;4.804;2022-10-15T08:51:19;5.05;;;1.25;;
74320;SDS011;62738;45.772;4.804;2022-10-15T08:53:51;1.60;;;1.08;;
74320;SDS011;62738;45.772;4.804;2022-10-15T08:56:29;2.80;;;1.25;;
74320;SDS011;62738;45.772;4.804;2022-10-15T09:01:54;3.05;;;1.25;;
74320;SDS011;62738;45.772;4.804;2022-10-15T09:07:03;2.95;;;1.50;;
74320;SDS011;62738;45.772;4.804;2022-10-15T09:09:38;4.18;;;1.40;;
74320;SDS011;62738;45.772;4.804;2022-10-15T09:12:47;2.65;;;1.20;;
74320;SDS011;62738;45.772;4.804;2022-10-15T09:15:20;3.90;;;1.60;;
74320;SDS011;62738;45.772;4.804;2022-10-15T09:17:53;3.53;;;1.30;;
74320;SDS011;62738;45.772;4.804;2022-10-15T09:20:25;5.88;;;1.70;;
74320;SDS011;62738;45.772;4.804;2022-10-15T09:22:56;2.38;;;1.33;;
74320;SDS011;62738;45.772;4.804;2022-10-15T09:25:23;3.00;;;1.20;;
74320;SDS011;62738;45.772;4.804;2022-10-15T09:27:54;2.38;;;1.40;;
74320;SDS011;62738;45.772;4.804;2022-10-15T09:30:45;3.83;;;1.30;;
74320;SDS011;62738;45.772;4.804;2022-10-15T09:41:24;2.80;;;1.15;;
74320;SDS011;62738;45.772;4.804;2022-10-15T09:43:56;3.85;;;1.40;;
74320;SDS011;62738;45.772;4.804;2022-10-15T09:46:28;3.10;;;1.30;;
74320;SDS011;62738;45.772;4.804;2022-10-15T09:57:41;3.60;;;1.20;;
74320;SDS011;62738;45.772;4.804;2022-10-15T10:00:14;2.72;;;1.35;;
74320;SDS011;62738;45.772;4.804;2022-10-15T10:02:40;6.20;;;1.40;;
74320;SDS011;62738;45.772;4.804;2022-10-15T10:05:17;4.15;;;1.30;;
74320;SDS011;62738;45.772;4.804;2022-10-15T10:07:46;6.28;;;1.30;;
74320;SDS011;62738;45.772;4.804;2022-10-15T10:10:31;4.07;;;1.48;;
74320;SDS011;62738;45.772;4.804;2022-10-15T10:12:59;2.45;;;1.13;;
74320;SDS011;62738;45.772;4.804;2022-10-15T10:15:35;2.05;;;1.17;;
74320;SDS011;62738;45.772;4.804;2022-10-15T10:18:11;4.25;;;1.33;;
74320;SDS011;62738;45.772;4.804;2022-10-15T10:20:51;5.28;;;1.38;;
74320;SDS011;62738;45.772;4.804;2022-10-15T10:23:21;4.32;;;1.10;;
74320;SDS011;62738;45.772;4.804;2022-10-15T10:25:49;3.55;;;1.00;;
74320;SDS011;62738;45.772;4.804;2022-10-15T10:28:19;2.95;;;1.30;;
74320;SDS011;62738;45.772;4.804;2022-10-15T10:33:29;8.15;;;2.20;;
74320;SDS011;62738;45.772;4.804;2022-10-15T10:35:57;2.38;;;1.23;;
74320;SDS011;62738;45.772;4.804;2022-10-15T10:38:29;3.15;;;1.05;;
74320;SDS011;62738;45.772;4.804;2022-10-15T10:40:59;5.20;;;1.30;;
74320;SDS011;62738;45.772;4.804;2022-10-15T10:43:37;3.47;;;1.55;;
74320;SDS011;62738;45.772;4.804;2022-10-15T10:46:15;4.22;;;1.40;;
74320;SDS011;62738;45.772;4.804;2022-10-15T10:48:48;2.42;;;1.00;;
74320;SDS011;62738;45.772;4.804;2022-10-15T10:51:20;2.72;;;1.30;;
74320;SDS011;62738;45.772;4.804;2022-10-15T10:56:38;3.88;;;1.02;;
74320;SDS011;62738;45.772;4.804;2022-10-15T10:59:12;2.88;;;1.10;;
74320;SDS011;62738;45.772;4.804;2022-10-15T11:01:43;3.15;;;1.20;;
74320;SDS011;62738;45.772;4.804;2022-10-15T11:04:14;4.03;;;1.45;;
74320;SDS011;62738;45.772;4.804;2022-10-15T11:07:00;4.68;;;1.30;;
74320;SDS011;62738;45.772;4.804;2022-10-15T11:09:49;4.07;;;1.40;;
74320;SDS011;62738;45.772;4.804;2022-10-15T11:15:27;3.70;;;1.48;;
74320;SDS011;62738;45.772;4.804;2022-10-15T11:35:35;4.38;;;1.02;;
74320;SDS011;62738;45.772;4.804;2022-10-15T11:43:59;3.25;;;1.02;;
74320;SDS011;62738;45.772;4.804;2022-10-15T11:46:39;2.67;;;1.13;;
74320;SDS011;62738;45.772;4.804;2022-10-15T11:52:21;2.88;;;1.00;;
74320;SDS011;62738;45.772;4.804;2022-10-15T11:55:06;1.58;;;0.88;;
74320;SDS011;62738;45.772;4.804;2022-10-15T11:57:39;2.65;;;1.23;;
74320;SDS011;62738;45.772;4.804;2022-10-15T12:02:44;3.90;;;1.13;;
74320;SDS011;62738;45.772;4.804;2022-10-15T12:05:16;3.60;;;1.17;;
74320;SDS011;62738;45.772;4.804;2022-10-15T12:07:47;1.55;;;0.95;;
74320;SDS011;62738;45.772;4.804;2022-10-15T12:13:27;4.63;;;1.23;;
74320;SDS011;62738;45.772;4.804;2022-10-15T12:18:57;2.47;;;0.88;;
74320;SDS011;62738;45.772;4.804;2022-10-15T12:21:35;5.22;;;0.75;;
74320;SDS011;62738;45.772;4.804;2022-10-15T12:24:08;1.25;;;0.63;;
74320;SDS011;62738;45.772;4.804;2022-10-15T12:29:46;1.55;;;0.90;;
74320;SDS011;62738;45.772;4.804;2022-10-15T12:32:57;1.50;;;0.90;;
74320;SDS011;62738;45.772;4.804;2022-10-15T12:37:42;1.13;;;0.70;;
74320;SDS011;62738;45.772;4.804;2022-10-15T12:42:57;2.38;;;0.63;;
74320;SDS011;62738;45.772;4.804;2022-10-15T12:50:33;1.50;;;0.90;;
74320;SDS011;62738;45.772;4.804;2022-10-15T12:53:03;2.42;;;0.93;;
74320;SDS011;62738;45.772;4.804;2022-10-15T13:00:57;2.88;;;0.70;;
74320;SDS011;62738;45.772;4.804;2022-10-15T13:03:33;1.85;;;0.70;;
74320;SDS011;62738;45.772;4.804;2022-10-15T13:11:36;2.55;;;0.90;;
74320;SDS011;62738;45.772;4.804;2022-10-15T13:14:12;1.92;;;0.90;;
74320;SDS011;62738;45.772;4.804;2022-10-15T13:16:44;1.40;;;0.70;;
74320;SDS011;62738;45.772;4.804;2022-10-15T13:19:19;2.65;;;1.00;;
74320;SDS011;62738;45.772;4.804;2022-10-15T13:22:23;2.03;;;1.08;;
74320;SDS011;62738;45.772;4.804;2022-10-15T13:24:47;3.25;;;1.38;;
74320;SDS011;62738;45.772;4.804;2022-10-15T13:27:15;4.15;;;1.35;;
74320;SDS011;62738;45.772;4.804;2022-10-15T13:30:00;4.03;;;1.10;;
74320;SDS011;62738;45.772;4.804;2022-10-15T13:32:28;1.95;;;0.93;;
74320;SDS011;62738;45.772;4.804;2022-10-15T13:34:57;1.95;;;0.90;;
74320;SDS011;62738;45.772;4.804;2022-10-15T13:37:28;2.30;;;0.90;;
74320;SDS011;62738;45.772;4.804;2022-10-15T13:39:57;2.63;;;0.80;;
74320;SDS011;62738;45.772;4.804;2022-10-15T13:42:31;1.08;;;0.73;;
74320;SDS011;62738;45.772;4.804;2022-10-15T13:45:00;1.77;;;0.80;;
74320;SDS011;62738;45.772;4.804;2022-10-15T13:47:41;2.05;;;1.00;;
74320;SDS011;62738;45.772;4.804;2022-10-15T13:52:48;2.50;;;0.93;;
74320;SDS011;62738;45.772;4.804;2022-10-15T13:55:26;2.20;;;0.75;;
74320;SDS011;62738;45.772;4.804;2022-10-15T13:58:39;1.80;;;0.90;;
74320;SDS011;62738;45.772;4.804;2022-10-15T14:03:34;2.60;;;0.80;;
74320;SDS011;62738;45.772;4.804;2022-10-15T14:06:18;1.30;;;0.70;;
74320;SDS011;62738;45.772;4.804;2022-10-15T14:08:47;1.45;;;0.90;;
74320;SDS011;62738;45.772;4.804;2022-10-15T14:11:16;2.58;;;1.10;;
74320;SDS011;62738;45.772;4.804;2022-10-15T14:13:44;2.65;;;1.00;;
74320;SDS011;62738;45.772;4.804;2022-10-15T14:16:14;4.03;;;0.70;;
74320;SDS011;62738;45.772;4.804;2022-10-15T14:18:47;1.38;;;0.70;;
74320;SDS011;62738;45.772;4.804;2022-10-15T14:23:44;4.07;;;1.13;;
74320;SDS011;62738;45.772;4.804;2022-10-15T14:26:13;1.98;;;0.80;;
74320;SDS011;62738;45.772;4.804;2022-10-15T14:28:40;2.17;;;0.93;;
74320;SDS011;62738;45.772;4.804;2022-10-15T14:31:08;2.45;;;1.00;;
74320;SDS011;62738;45.772;4.804;2022-10-15T14:33:55;3.35;;;1.30;;
74320;SDS011;62738;45.772;4.804;2022-10-15T14:38:50;3.22;;;0.80;;
74320;SDS011;62738;45.772;4.804;2022-10-15T14:41:29;1.25;;;0.60;;
74320;SDS011;62738;45.772;4.804;2022-10-15T14:44:01;5.43;;;1.10;;
74320;SDS011;62738;45.772;4.804;2022-10-15T14:46:35;1.88;;;0.90;;
74320;SDS011;62738;45.772;4.804;2022-10-15T14:49:12;1.35;;;0.75;;
74320;SDS011;62738;45.772;4.804;2022-10-15T14:52:05;2.13;;;0.80;;
74320;SDS011;62738;45.772;4.804;2022-10-15T14:54:40;3.50;;;0.93;;
74320;SDS011;62738;45.772;4.804;2022-10-15T14:57:16;6.03;;;0.90;;
74320;SDS011;62738;45.772;4.804;2022-10-15T14:59:53;2.20;;;1.00;;
74320;SDS011;62738;45.772;4.804;2022-10-15T15:02:26;2.30;;;1.17;;
74320;SDS011;62738;45.772;4.804;2022-10-15T15:05:05;2.67;;;1.00;;
74320;SDS011;62738;45.772;4.804;2022-10-15T15:07:52;2.28;;;1.00;;
74320;SDS011;62738;45.772;4.804;2022-10-15T15:10:22;3.60;;;1.08;;
74320;SDS011;62738;45.772;4.804;2022-10-15T15:12:51;2.17;;;0.82;;
74320;SDS011;62738;45.772;4.804;2022-10-15T15:15:20;3.10;;;1.02;;
74320;SDS011;62738;45.772;4.804;2022-10-15T15:17:48;1.40;;;0.93;;
74320;SDS011;62738;45.772;4.804;2022-10-15T15:20:16;2.40;;;1.05;;
74320;SDS011;62738;45.772;4.804;2022-10-15T15:22:48;3.83;;;1.63;;
74320;SDS011;62738;45.772;4.804;2022-10-15T15:25:17;2.92;;;1.30;;
74320;SDS011;62738;45.772;4.804;2022-10-15T15:27:46;4.75;;;2.13;;
74320;SDS011;62738;45.772;4.804;2022-10-15T15:30:17;3.90;;;1.50;;
74320;SDS011;62738;45.772;4.804;2022-10-15T15:32:46;6.43;;;2.20;;
74320;SDS011;62738;45.772;4.804;2022-10-15T15:35:23;6.38;;;2.10;;
74320;SDS011;62738;45.772;4.804;2022-10-15T15:37:53;4.28;;;1.90;;
74320;SDS011;62738;45.772;4.804;2022-10-15T15:40:20;2.90;;;1.13;;
74320;SDS011;62738;45.772;4.804;2022-10-15T15:42:47;3.67;;;1.10;;
74320;SDS011;62738;45.772;4.804;2022-10-15T15:45:19;3.25;;;1.20;;
74320;SDS011;62738;45.772;4.804;2022-10-15T15:47:48;2.03;;;0.90;;
74320;SDS011;62738;45.772;4.804;2022-10-15T15:50:15;3.15;;;1.10;;
74320;SDS011;62738;45.772;4.804;2022-10-15T15:52:43;5.05;;;1.45;;
74320;SDS011;62738;45.772;4.804;2022-10-15T15:55:10;5.78;;;3.13;;
74320;SDS011;62738;45.772;4.804;2022-10-15T15:57:37;7.13;;;2.75;;
74320;SDS011;62738;45.772;4.804;2022-10-15T16:00:05;4.15;;;1.60;;
74320;SDS011;62738;45.772;4.804;2022-10-15T16:02:34;4.47;;;1.50;;
74320;SDS011;62738;45.772;4.804;2022-10-15T16:05:03;4.40;;;1.10;;
74320;SDS011;62738;45.772;4.804;2022-10-15T16:07:33;5.13;;;1.20;;
74320;SDS011;62738;45.772;4.804;2022-10-15T16:10:00;2.15;;;0.93;;
74320;SDS011;62738;45.772;4.804;2022-10-15T16:12:29;2.70;;;1.00;;
74320;SDS011;62738;45.772;4.804;2022-10-15T16:14:55;2.67;;;0.90;;
74320;SDS011;62738;45.772;4.804;2022-10-15T16:17:23;3.58;;;1.60;;
74320;SDS011;62738;45.772;4.804;2022-10-15T16:19:50;2.88;;;1.20;;
74320;SDS011;62738;45.772;4.804;2022-10-15T16:22:17;2.45;;;1.00;;
74320;SDS011;62738;45.772;4.804;2022-10-15T16:24:43;4.65;;;1.50;;
74320;SDS011;62738;45.772;4.804;2022-10-15T16:27:10;5.53;;;1.38;;
74320;SDS011;62738;45.772;4.804;2022-10-15T16:29:37;1.85;;;0.93;;
74320;SDS011;62738;45.772;4.804;2022-10-15T16:32:03;3.03;;;0.70;;
74320;SDS011;62738;45.772;4.804;2022-10-15T16:34:30;2.17;;;0.75;;
74320;SDS011;62738;45.772;4.804;2022-10-15T16:36:57;1.70;;;0.90;;
74320;SDS011;62738;45.772;4.804;2022-10-15T16:39:23;3.85;;;0.93;;
74320;SDS011;62738;45.772;4.804;2022-10-15T16:41:50;2.13;;;1.00;;
74320;SDS011;62738;45.772;4.804;2022-10-15T16:44:16;1.15;;;0.80;;
74320;SDS011;62738;45.772;4.804;2022-10-15T16:46:43;5.40;;;1.38;;
74320;SDS011;62738;45.772;4.804;2022-10-15T16:49:10;4.53;;;1.20;;
74320;SDS011;62738;45.772;4.804;2022-10-15T16:51:36;2.83;;;1.13;;
74320;SDS011;62738;45.772;4.804;2022-10-15T16:54:11;2.72;;;1.20;;
74320;SDS011;62738;45.772;4.804;2022-10-15T16:59:05;3.60;;;1.38;;
74320;SDS011;62738;45.772;4.804;2022-10-15T17:01:32;3.40;;;1.40;;
74320;SDS011;62738;45.772;4.804;2022-10-15T17:03:59;3.63;;;1.50;;
74320;SDS011;62738;45.772;4.804;2022-10-15T17:06:26;4.85;;;2.10;;
74320;SDS011;62738;45.772;4.804;2022-10-15T17:08:58;3.10;;;1.52;;
74320;SDS011;62738;45.772;4.804;2022-10-15T17:11:27;3.47;;;1.52;;
74320;SDS011;62738;45.772;4.804;2022-10-15T17:13:59;4.00;;;1.70;;
74320;SDS011;62738;45.772;4.804;2022-10-15T17:16:27;4.93;;;1.70;;
74320;SDS011;62738;45.772;4.804;2022-10-15T17:18:56;5.13;;;1.88;;
74320;SDS011;62738;45.772;4.804;2022-10-15T17:21:26;7.80;;;3.20;;
74320;SDS011;62738;45.772;4.804;2022-10-15T17:23:55;7.25;;;2.97;;